Date,TemperatureHighF,TemperatureAvgF,TemperatureLowF,DewpointHighF,DewpointAvgF,DewpointLowF,HumidityHigh,HumidityAvg,HumidityLow,PressureMaxIn,PressureMinIn,WindSpeedMaxMPH,WindSpeedAvgMPH,GustSpeedMaxMPH,PrecipitationSumIn
2013-1-1,33.0,29.6,23.0,30.0,25.8,16.0,93,86,73,30.12,30.01,5,2,8,0.01
2013-1-2,28.0,20.1,12.0,19.0,15.3,9.0,89,82,63,30.22,30.10,3,1,7,0.04
2013-1-3,34.0,23.1,10.0,23.0,16.0,7.0,90,75,51,30.28,30.17,11,4,18,0.01
2013-1-4,34.0,30.2,27.0,24.0,21.5,19.0,78,70,57,30.31,30.24,13,8,23,0.00
2013-1-5,39.0,31.2,22.0,29.0,24.3,18.0,88,76,63,30.35,30.15,5,2,10,0.13
2013-1-6,38.0,33.2,27.0,32.0,27.0,21.0,86,78,74,30.32,30.00,13,6,23,0.03
2013-1-7,38.0,30.6,26.0,28.0,24.4,22.0,85,78,64,30.45,30.23,6,2,11,0.01
2013-1-8,49.0,37.1,23.0,34.0,28.2,19.0,88,71,56,30.31,30.21,7,2,14,0.00
2013-1-9,51.0,44.0,36.0,43.0,35.8,29.0,90,73,58,30.50,30.20,9,4,15,0.05
2013-1-10,45.0,37.1,29.0,38.0,31.3,25.0,91,80,71,30.51,30.12,6,3,14,0.02
2013-1-11,60.0,53.8,45.0,54.0,48.2,38.0,91,82,70,30.12,29.90,11,5,22,0.46
2013-1-12,64.0,59.8,55.0,60.0,56.2,50.0,93,88,80,30.04,29.83,9,4,18,0.01
2013-1-13,65.0,55.3,37.0,60.0,51.8,34.0,92,88,77,30.10,29.76,12,7,23,0.61
2013-1-14,37.0,27.8,24.0,34.0,23.4,20.0,89,83,78,30.41,30.10,7,4,13,0.20
2013-1-15,31.0,27.7,23.0,25.0,22.8,19.0,89,82,77,30.35,30.07,8,5,15,0.00
2013-1-16,35.0,32.0,30.0,29.0,26.9,25.0,87,81,72,30.08,29.96,7,4,13,0.00
2013-1-17,40.0,32.4,27.0,31.0,26.3,20.0,86,78,63,30.34,30.06,6,2,12,0.00
2013-1-18,37.0,28.2,17.0,25.0,19.3,13.0,88,70,56,30.50,30.22,9,4,20,0.00
2013-1-19,54.0,44.2,36.0,29.0,25.7,22.0,64,49,31,30.21,29.90,14,10,25,0.00
2013-1-20,47.0,33.5,25.0,34.0,18.1,11.0,68,53,43,30.19,29.89,17,7,27,0.00
2013-1-21,24.0,20.0,10.0,17.0,10.2,-2.0,84,65,53,30.19,30.04,14,8,26,0.00
2013-1-22,17.0,11.5,6.0,3.0,-0.6,-3.0,70,58,45,30.33,30.19,10,6,19,0.00
2013-1-23,20.0,16.2,11.0,14.0,6.2,1.0,79,65,49,30.30,30.06,8,3,14,0.00
2013-1-24,21.0,17.2,11.0,15.0,8.2,3.0,85,68,50,30.54,30.06,7,3,14,0.00
2013-1-25,25.0,21.1,18.0,20.0,14.0,7.0,85,74,59,30.43,30.01,7,4,16,0.00
2013-1-26,31.0,25.2,20.0,22.0,18.6,14.0,89,76,62,30.41,30.09,7,4,14,0.03
2013-1-27,35.0,27.5,18.0,31.0,20.9,13.0,90,76,63,30.43,30.19,6,3,13,0.20
2013-1-28,51.0,46.2,34.0,49.0,43.3,31.0,94,90,79,30.19,30.02,11,7,21,0.54
2013-1-29,64.0,57.7,50.0,58.0,52.6,47.0,94,84,74,30.06,29.62,12,7,24,0.01
2013-1-30,66.0,54.4,33.0,58.0,48.7,25.0,92,81,73,29.62,29.27,18,9,29,0.71
2013-1-31,33.0,26.1,17.0,26.0,17.8,12.0,88,71,60,29.96,29.50,16,10,27,0.13
2013-2-1,16.0,10.8,6.0,12.0,3.4,-1.0,85,72,61,30.35,29.96,11,6,20,0.00
2013-2-2,28.0,21.6,11.0,25.0,17.0,5.0,87,82,74,30.29,29.96,8,5,16,0.00
2013-2-3,27.0,21.3,16.0,23.0,15.3,9.0,86,77,67,30.08,29.89,11,6,18,0.00
2013-2-4,34.0,25.5,14.0,32.0,21.3,11.0,92,84,69,30.09,29.81,7,3,16,0.00
2013-2-5,36.0,32.0,28.0,32.0,27.6,24.0,92,84,71,29.98,29.83,8,2,15,0.06
2013-2-6,35.0,32.1,28.0,29.0,25.8,23.0,84,78,69,30.26,29.98,6,2,16,0.01
2013-2-7,55.0,40.3,28.0,39.0,31.0,23.0,85,71,54,30.21,29.82,6,3,11,0.00
2013-2-8,50.0,36.9,29.0,43.0,30.8,21.0,90,79,60,30.29,29.78,11,6,20,0.14
2013-2-9,38.0,28.7,19.0,24.0,20.4,16.0,89,72,54,30.40,30.23,4,2,11,0.01
2013-2-10,52.0,41.5,30.0,42.0,28.8,20.0,81,62,41,30.23,29.80,10,5,22,0.02
2013-2-11,51.0,46.5,38.0,48.0,35.8,27.0,90,67,48,30.01,29.76,20,11,32,0.02
2013-2-12,48.0,37.2,29.0,29.0,25.8,23.0,82,65,39,30.11,29.91,9,4,17,0.00
2013-2-13,34.0,30.2,28.0,29.0,26.3,23.0,90,85,67,29.91,29.75,7,2,11,0.07
2013-2-14,51.0,37.8,29.0,38.0,31.9,26.0,92,81,56,29.97,29.80,11,6,21,0.03
2013-2-15,38.0,31.9,23.0,32.0,27.5,20.0,90,84,70,30.12,29.97,9,2,15,0.01
2013-2-16,26.0,21.1,14.0,22.0,15.6,10.0,90,80,62,30.11,30.00,9,4,15,0.00
2013-2-17,28.0,20.6,12.0,14.0,10.1,6.0,80,64,45,30.20,30.07,7,2,14,0.00
2013-2-18,55.0,38.4,21.0,38.0,23.4,10.0,73,55,43,30.20,29.76,17,6,32,0.05
2013-2-19,45.0,32.4,23.0,39.0,26.4,16.0,91,78,69,30.06,29.65,15,11,28,0.25
2013-2-20,24.0,21.3,18.0,17.0,13.9,11.0,80,73,66,30.27,30.06,12,6,19,0.01
2013-2-21,28.0,24.3,21.0,22.0,17.6,13.0,79,75,71,30.32,30.06,9,4,19,0.00
2013-2-22,42.0,35.0,28.0,38.0,31.7,22.0,92,87,79,30.06,29.88,11,4,21,0.20
2013-2-23,41.0,35.0,30.0,32.0,28.4,24.0,92,77,56,29.98,29.89,8,3,13,0.01
2013-2-24,39.0,30.8,25.0,25.0,23.0,20.0,89,73,56,30.14,29.92,7,3,16,0.00
2013-2-25,44.0,33.5,23.0,29.0,24.3,19.0,85,70,53,30.16,29.92,8,3,15,0.00
2013-2-26,46.0,39.6,34.0,43.0,34.4,24.0,92,82,66,29.92,29.38,13,7,24,0.59
2013-2-27,42.0,36.9,32.0,39.0,33.5,30.0,92,87,78,29.70,29.50,11,8,23,0.29
2013-2-28,35.0,33.0,31.0,32.0,30.2,28.0,91,89,86,29.91,29.66,10,6,17,0.03
2013-3-1,34.0,32.4,29.0,32.0,28.7,23.0,92,86,77,30.01,29.90,7,3,11,0.01
2013-3-2,29.0,27.0,26.0,24.0,20.8,19.0,85,77,71,30.04,29.99,7,3,11,0.00
2013-3-3,31.0,27.6,25.0,22.0,19.3,17.0,85,71,57,30.06,30.00,8,3,17,0.00
2013-3-4,40.0,30.2,18.0,28.0,20.3,14.0,90,69,44,30.14,30.00,5,1,9,0.02
2013-3-5,37.0,34.1,32.0,33.0,30.4,29.0,92,86,78,30.03,29.55,9,5,17,0.30
2013-3-6,33.0,31.0,29.0,30.0,28.4,27.0,93,90,86,30.22,29.57,5,3,18,0.28
2013-3-7,38.0,32.7,28.0,33.0,28.5,26.0,92,85,76,30.35,30.20,6,2,9,0.25
2013-3-8,39.0,31.6,21.0,28.0,23.8,18.0,91,73,54,30.45,30.35,7,2,10,0.03
2013-3-9,56.0,41.3,29.0,37.0,30.5,24.0,86,67,45,30.37,30.05,6,2,13,0.01
2013-3-10,67.0,58.0,50.0,39.0,35.2,32.0,52,43,31,30.05,29.85,9,5,19,0.00
2013-3-11,62.0,49.7,39.0,50.0,42.9,32.0,89,79,39,29.88,29.59,15,6,26,1.00
2013-3-12,42.0,36.6,34.0,33.0,29.5,28.0,85,76,61,30.00,29.82,11,6,19,0.01
2013-3-13,35.0,29.7,27.0,30.0,23.9,20.0,88,79,62,30.27,29.97,12,8,27,0.00
2013-3-14,41.0,30.7,20.0,22.0,19.5,16.0,88,65,37,30.32,30.13,7,4,15,0.00
2013-3-15,51.0,40.1,30.0,39.0,31.0,20.0,86,71,56,30.14,29.80,8,3,15,0.00
2013-3-16,57.0,45.5,35.0,50.0,40.2,31.0,89,82,69,30.01,29.61,9,5,17,0.15
2013-3-17,36.0,34.0,32.0,31.0,28.6,27.0,85,80,74,30.14,30.00,8,6,17,0.01
2013-3-18,50.0,40.5,32.0,48.0,37.6,29.0,93,89,80,30.00,29.61,13,7,21,0.96
2013-3-19,42.0,36.4,29.0,34.0,23.3,16.0,82,61,36,30.07,29.80,19,11,35,0.01
2013-3-20,36.0,31.0,24.0,21.0,17.4,10.0,69,57,47,30.06,29.91,13,8,25,0.00
2013-3-21,30.0,24.3,20.0,16.0,14.0,11.0,81,65,53,30.00,29.90,8,4,15,0.00
2013-3-22,42.0,30.1,20.0,21.0,16.8,13.0,77,59,37,30.05,29.97,7,2,14,0.00
2013-3-23,49.0,37.2,26.0,27.0,22.9,18.0,82,58,34,30.05,29.90,6,2,12,0.00
2013-3-24,36.0,33.1,31.0,31.0,27.7,24.0,92,81,65,29.90,29.40,13,8,26,0.02
2013-3-25,33.0,31.8,30.0,31.0,29.4,27.0,93,91,89,29.90,29.40,7,4,14,0.16
2013-3-26,38.0,33.9,30.0,31.0,29.0,26.0,91,82,69,30.20,29.90,6,4,14,0.35
2013-3-27,41.0,35.0,30.0,31.0,26.7,22.0,85,72,56,30.28,30.19,8,5,15,0.01
2013-3-28,49.0,37.3,27.0,30.0,25.4,21.0,81,63,44,30.33,30.26,7,2,16,0.00
2013-3-29,53.0,40.3,25.0,33.0,28.0,21.0,88,64,40,30.31,30.19,6,2,13,0.00
2013-3-30,57.0,45.1,29.0,34.0,29.9,25.0,89,58,37,30.24,29.95,7,2,14,0.00
2013-3-31,56.0,48.4,44.0,46.0,39.5,-99.9,92,75,55,29.95,29.76,10,3,18,0.05
2013-4-1,49.0,41.0,32.0,41.0,27.8,19.0,86,61,38,30.09,29.78,9,4,16,0.01
2013-4-2,44.0,33.9,21.0,22.0,17.8,15.0,79,53,32,30.24,30.09,8,3,17,0.00
2013-4-3,46.0,34.9,21.0,20.0,16.7,12.0,74,49,30,30.40,30.23,9,3,15,0.00
2013-4-4,53.0,40.6,30.0,24.0,19.1,15.0,60,43,23,30.34,29.99,7,3,14,0.00
2013-4-5,59.0,45.3,30.0,36.0,27.4,22.0,74,51,32,30.14,29.97,7,2,14,0.00
2013-4-6,63.0,49.3,34.0,36.0,27.5,22.0,63,44,30,30.22,29.92,8,4,17,0.00
2013-4-7,71.0,62.9,56.0,54.0,43.5,35.0,87,50,40,29.99,29.86,13,7,24,0.22
2013-4-8,71.0,62.2,53.0,55.0,51.7,47.0,91,70,53,30.02,29.89,12,5,26,0.28
2013-4-9,80.0,67.8,54.0,60.0,54.2,50.0,86,64,42,30.06,29.93,14,5,26,0.00
2013-4-10,82.0,71.9,63.0,64.0,59.1,55.0,78,65,47,29.97,29.81,13,6,27,0.00
2013-4-11,66.0,61.9,58.0,61.0,57.2,54.0,93,85,72,29.84,29.55,9,3,17,0.84
2013-4-12,58.0,47.2,41.0,56.0,40.3,31.0,93,78,59,29.91,29.51,12,7,23,0.63
2013-4-13,56.0,45.9,39.0,39.0,34.7,32.0,81,66,44,30.03,29.91,14,6,26,0.01
2013-4-14,69.0,53.3,38.0,44.0,38.3,32.0,82,60,36,30.08,29.90,6,2,15,0.00
2013-4-15,68.0,61.2,52.0,54.0,49.1,40.0,77,65,45,30.01,29.90,8,3,17,0.00
2013-4-16,79.0,64.9,58.0,63.0,56.9,52.0,92,76,58,30.16,29.96,11,6,19,0.58
2013-4-17,77.0,63.5,53.0,64.0,58.1,51.0,93,84,60,30.22,29.99,8,4,19,0.94
2013-4-18,81.0,72.3,64.0,63.0,57.5,51.0,81,62,39,29.99,29.65,15,8,30,0.01
2013-4-19,74.0,48.7,39.0,54.0,36.9,31.0,77,65,47,29.95,29.57,14,10,25,0.55
2013-4-20,49.0,41.1,36.0,32.0,29.3,25.0,81,64,43,30.39,29.95,9,6,22,0.01
2013-4-21,53.0,42.6,32.0,31.0,27.5,24.0,74,57,36,30.53,30.38,8,4,14,0.00
2013-4-22,68.0,54.0,39.0,40.0,34.0,26.0,64,48,33,30.38,30.14,6,2,14,0.00
2013-4-23,69.0,59.9,49.0,52.0,44.0,35.0,69,56,46,30.15,29.89,8,3,18,0.00
2013-4-24,65.0,51.8,38.0,54.0,44.2,33.0,91,76,60,30.20,29.78,11,6,23,0.80
2013-4-25,58.0,44.6,34.0,37.0,33.5,28.0,92,68,40,30.37,30.20,12,4,21,0.01
2013-4-26,60.0,46.8,30.0,37.0,31.0,26.0,89,57,33,30.47,30.35,3,1,8,0.00
2013-4-27,68.0,56.0,44.0,50.0,39.7,31.0,79,56,35,30.35,30.08,8,2,18,0.00
2013-4-28,66.0,58.7,55.0,58.0,52.9,-99.9,92,85,73,30.08,29.82,7,4,15,0.11
2013-4-29,63.0,58.2,55.0,55.0,53.4,51.0,93,85,70,30.00,29.89,6,2,9,0.02
2013-4-30,76.0,63.0,50.0,57.0,53.2,48.0,94,73,47,30.08,29.98,5,2,13,0.01
2013-5-1,81.0,68.9,55.0,61.0,55.0,50.0,83,63,40,30.20,30.07,6,2,12,0.00
2013-5-2,73.0,66.0,59.0,56.0,52.5,50.0,72,62,50,30.24,30.11,6,2,15,0.00
2013-5-3,75.0,66.8,60.0,56.0,50.1,36.0,75,57,29,30.11,29.99,8,4,17,0.00
2013-5-4,70.0,63.0,57.0,49.0,44.9,38.0,67,52,39,30.03,29.95,8,5,18,0.00
2013-5-5,64.0,58.9,55.0,47.0,43.0,37.0,72,56,36,29.99,29.93,8,3,18,0.00
2013-5-6,59.0,56.1,53.0,55.0,52.2,47.0,90,87,72,29.97,29.91,8,4,20,0.79
2013-5-7,70.0,60.5,54.0,59.0,55.3,52.0,93,84,64,29.98,29.92,7,3,11,0.08
2013-5-8,72.0,61.6,52.0,61.0,55.1,50.0,94,80,57,30.01,29.93,6,1,12,0.42
2013-5-9,78.0,64.8,51.0,60.0,55.3,49.0,94,74,43,30.04,29.96,7,1,17,0.29
2013-5-10,71.0,62.3,59.0,62.0,56.9,-99.9,93,87,70,29.99,29.82,10,4,25,1.07
2013-5-11,61.0,53.2,45.0,59.0,49.1,40.0,93,86,75,29.98,29.84,9,4,15,0.43
2013-5-12,53.0,45.2,36.0,40.0,33.3,-99.9,93,68,42,30.11,29.98,10,4,19,0.05
2013-5-13,59.0,49.2,40.0,37.0,33.5,28.0,82,57,32,30.17,30.10,9,2,18,0.00
2013-5-14,79.0,67.3,49.0,58.0,48.2,35.0,63,51,41,30.12,29.84,11,6,25,0.00
2013-5-15,86.0,75.5,66.0,60.0,58.1,55.0,74,56,39,29.89,29.81,15,8,26,0.00
2013-5-16,76.0,64.3,63.0,65.0,38.5,-99.9,92,75,51,29.99,29.85,8,2,16,0.10
2013-5-17,78.0,65.5,57.0,66.0,56.6,-99.9,95,85,64,30.08,29.99,7,1,21,0.20
2013-5-18,79.0,69.2,62.0,66.0,62.3,59.0,92,80,59,30.08,29.98,4,2,12,0.19
2013-5-19,81.0,71.0,62.0,69.0,64.5,60.0,94,81,60,30.02,29.93,4,1,8,0.00
2013-5-20,83.0,74.9,68.0,71.0,67.2,64.0,92,78,59,30.02,29.91,8,3,16,0.00
2013-5-21,84.0,75.7,68.0,68.0,64.1,61.0,87,69,49,29.96,29.83,10,5,24,0.00
2013-5-22,79.0,69.9,63.0,65.0,61.8,59.0,91,77,55,29.87,29.75,11,5,22,0.42
2013-5-23,68.0,62.3,50.0,62.0,57.3,45.0,93,84,67,30.07,29.80,11,5,18,0.55
2013-5-24,63.0,52.7,44.0,45.0,40.4,36.0,84,65,38,30.31,30.07,8,3,16,0.03
2013-5-25,65.0,54.1,42.0,49.0,41.4,37.0,85,64,38,30.39,30.23,4,2,11,0.00
2013-5-26,70.0,60.0,48.0,48.0,42.0,39.0,80,53,35,30.32,30.19,5,1,11,0.00
2013-5-27,80.0,65.6,52.0,60.0,51.8,43.0,86,63,44,30.22,29.98,7,3,16,0.19
2013-5-28,76.0,72.1,69.0,63.0,59.5,56.0,74,65,56,30.04,29.96,9,5,20,0.01
2013-5-29,84.0,76.6,69.0,64.0,60.7,58.0,73,59,44,30.10,30.00,10,5,22,0.00
2013-5-30,86.0,77.0,69.0,68.0,64.3,61.0,82,66,51,30.17,30.03,8,3,16,0.00
2013-5-31,83.0,73.4,67.0,68.0,64.6,62.0,91,75,58,30.09,29.97,12,5,26,0.40
2013-6-1,80.0,73.9,67.0,69.0,66.1,64.0,91,77,66,29.99,29.80,12,7,25,0.36
2013-6-2,76.0,69.9,64.0,68.0,60.0,-99.9,92,75,56,29.94,29.82,8,4,14,0.36
2013-6-3,67.0,61.3,54.0,58.0,53.2,49.0,86,75,62,30.07,29.93,5,2,13,0.02
2013-6-4,74.0,62.3,50.0,49.0,45.2,38.0,89,57,32,30.17,30.06,9,3,17,0.01
2013-6-5,80.0,68.7,56.0,64.0,54.1,48.0,80,61,45,30.11,29.88,6,2,13,0.01
2013-6-6,70.0,66.8,63.0,67.0,63.7,59.0,93,90,82,29.90,29.79,6,2,12,0.03
2013-6-7,73.0,61.4,56.0,59.0,55.9,54.0,94,83,58,29.91,29.81,7,4,14,0.02
2013-6-8,74.0,64.5,53.0,61.0,56.6,50.0,93,77,59,30.06,29.89,3,1,9,0.01
2013-6-9,80.0,71.6,63.0,66.0,61.9,59.0,87,72,51,30.09,29.93,6,2,13,0.01
2013-6-10,76.0,67.5,63.0,70.0,63.6,61.0,95,88,65,29.94,29.80,10,3,21,0.18
2013-6-11,83.0,71.9,62.0,69.0,64.0,60.0,94,78,51,29.98,29.86,7,4,13,0.01
2013-6-12,87.0,78.1,69.0,76.0,70.0,64.0,87,77,63,29.94,29.75,7,3,13,0.01
2013-6-13,80.0,70.9,66.0,71.0,66.6,63.0,93,86,74,29.76,29.62,8,3,17,1.71
2013-6-16,76.0,72.7,69.0,67.0,66.0,65.0,90,80,70,29.98,29.96,8,4,14,0.08
2013-6-17,84.0,73.1,67.0,70.0,66.5,64.0,95,81,52,30.00,29.90,4,1,9,0.06
2013-6-18,80.0,71.5,65.0,69.0,64.3,58.0,93,79,61,29.99,29.87,8,3,17,0.46
2013-6-19,78.0,67.2,56.0,58.0,54.4,49.0,89,66,38,30.14,30.01,7,4,16,0.02
2013-6-20,82.0,68.0,56.0,61.0,56.0,52.0,87,68,45,30.22,30.14,4,1,7,0.00
2013-6-22,87.0,81.5,74.0,73.0,69.2,66.0,81,67,54,30.19,30.08,7,3,13,0.01
2013-6-23,87.0,75.1,65.0,71.0,65.9,61.0,94,75,47,30.16,30.06,10,2,18,0.01
2013-6-24,83.0,73.6,65.0,72.0,67.2,62.0,92,81,67,30.16,30.04,10,2,19,0.10
2013-6-25,89.0,78.0,68.0,74.0,69.9,65.0,93,77,57,30.09,29.91,7,4,13,0.03
2013-6-26,84.0,73.6,67.0,73.0,68.3,64.0,93,84,69,29.95,29.80,7,3,17,0.65
2013-6-27,84.0,73.1,67.0,72.0,68.1,65.0,94,85,65,29.81,29.71,6,3,13,0.18
2013-6-28,83.0,72.4,63.0,69.0,64.3,56.0,92,77,46,29.70,29.59,10,4,20,0.03
2013-6-29,76.0,67.3,60.0,66.0,62.7,58.0,94,86,68,29.67,29.59,6,2,10,0.03
2013-6-30,81.0,69.6,64.0,66.0,63.8,61.0,93,83,57,29.85,29.67,7,2,15,0.02
2013-7-1,76.0,68.4,63.0,68.0,63.9,60.0,90,86,74,29.92,29.82,7,4,10,0.00
2013-7-2,80.0,72.0,64.0,68.0,65.3,62.0,94,80,62,30.03,29.91,6,2,10,0.00
2013-7-3,80.0,74.0,68.0,69.0,66.8,65.0,91,79,65,30.14,30.03,5,2,11,0.03
2013-7-4,71.0,69.6,68.0,68.0,67.1,65.0,94,91,89,30.18,30.10,4,1,8,0.70
2013-7-5,75.0,69.9,65.0,69.0,66.5,63.0,94,89,77,30.16,30.08,5,1,9,0.54
2013-7-6,79.0,71.6,70.0,71.0,68.3,66.0,94,90,74,30.15,30.06,9,2,19,0.49
2013-7-7,80.0,71.7,65.0,69.0,66.2,63.0,94,84,64,30.13,30.05,6,2,10,0.01
2013-7-8,84.0,74.5,68.0,73.0,68.6,65.0,92,82,67,30.16,30.06,7,2,14,0.00
2013-7-9,88.0,77.5,72.0,76.0,71.2,68.0,91,81,66,30.10,30.02,9,3,18,0.80
2013-7-10,87.0,73.8,66.0,78.0,66.8,-99.9,92,83,68,30.02,29.86,7,2,15,0.16
2013-7-11,78.0,69.8,64.0,68.0,63.4,56.0,95,81,61,30.03,29.95,9,3,15,0.06
2013-7-12,78.0,68.1,58.0,65.0,58.7,54.0,90,73,51,30.11,30.03,8,3,14,0.00
2013-7-13,81.0,70.5,63.0,67.0,63.1,59.0,88,78,61,30.17,30.07,6,3,13,0.00
2013-7-14,87.0,78.6,69.0,75.0,70.1,65.0,88,76,64,30.25,30.15,4,2,13,0.00
2013-7-15,90.0,80.2,72.0,74.0,70.4,68.0,87,73,55,30.33,30.25,5,1,9,0.00
2013-7-16,91.0,79.8,70.0,75.0,71.4,68.0,94,77,54,30.36,30.28,3,0,6,0.00
2013-7-17,91.0,81.2,71.0,77.0,73.3,69.0,94,78,60,30.35,30.21,5,2,9,0.00
2013-7-18,91.0,80.3,71.0,75.0,72.2,69.0,94,78,54,30.24,30.05,4,1,8,0.00
2013-7-19,86.0,77.9,74.0,78.0,72.9,68.0,93,85,71,30.08,29.92,6,2,11,0.27
2013-7-20,84.0,74.1,70.0,74.0,68.7,-99.9,93,85,70,29.94,29.88,8,3,16,1.00
2013-7-21,83.0,74.3,67.0,73.0,69.5,65.0,95,86,69,29.99,29.90,5,1,9,0.36
2013-7-22,76.0,72.7,70.0,72.0,69.6,68.0,94,90,82,29.95,29.78,4,1,9,0.10
2013-7-23,83.0,73.2,69.0,75.0,69.1,65.0,95,87,72,29.84,29.75,7,2,13,0.07
2013-7-24,74.0,67.6,61.0,66.0,59.6,55.0,89,76,58,30.00,29.82,8,4,14,0.02
2013-7-25,75.0,65.4,55.0,59.0,55.2,52.0,89,71,50,30.09,30.00,7,3,13,0.01
2013-7-26,78.0,66.4,54.0,63.0,58.1,52.0,94,76,53,30.10,29.99,4,1,10,0.00
2013-7-27,73.0,66.8,63.0,66.0,63.0,60.0,93,87,77,29.99,29.85,8,2,17,0.49
2013-7-28,71.0,64.7,54.0,56.0,52.9,50.0,94,66,52,30.06,29.98,6,4,16,0.06
2013-7-29,76.0,64.1,53.0,60.0,55.0,50.0,91,74,53,30.19,30.06,7,2,15,0.01
2013-7-30,77.0,67.1,56.0,65.0,59.4,54.0,94,78,55,30.24,30.14,2,0,7,0.00
2013-7-31,73.0,68.7,65.0,67.0,64.0,61.0,91,85,79,30.14,29.96,4,1,9,0.00
2013-8-1,79.0,71.2,64.0,67.0,63.8,58.0,94,79,55,30.00,29.93,5,2,10,0.00
2013-8-2,80.0,68.7,56.0,65.0,60.2,54.0,94,76,54,30.02,29.96,6,2,13,0.00
2013-8-3,79.0,71.1,64.0,69.0,64.8,59.0,92,81,61,30.03,29.97,4,1,13,0.08
2013-8-4,76.0,67.1,59.0,61.0,57.8,55.0,93,74,50,30.14,30.03,8,3,15,0.01
2013-8-5,76.0,65.9,54.0,61.0,56.7,52.0,94,74,52,30.14,29.99,3,1,8,0.00
2013-8-6,79.0,70.9,62.0,68.0,62.0,56.0,87,74,62,30.00,29.94,5,2,11,0.00
2013-8-7,83.0,74.9,68.0,73.0,69.6,65.0,92,84,71,29.97,29.90,5,2,11,0.00
2013-8-8,83.0,74.4,71.0,75.0,71.2,69.0,95,90,73,29.98,29.91,4,1,13,0.26
2013-8-9,79.0,72.1,69.0,72.0,68.9,67.0,95,90,74,30.04,29.92,4,1,8,0.49
2013-8-10,83.0,73.9,66.0,71.0,67.3,64.0,95,81,61,30.14,30.04,4,0,9,0.01
2013-8-11,84.0,74.3,66.0,72.0,67.8,64.0,94,81,61,30.11,30.04,5,1,10,0.00
2013-8-12,82.0,71.2,63.0,71.0,65.5,61.0,94,83,60,30.09,29.89,5,1,10,0.21
2013-8-13,76.0,68.8,58.0,70.0,60.8,-99.9,93,78,58,30.05,29.86,4,1,12,0.46
2013-8-14,68.0,56.4,50.0,53.0,46.3,-99.9,92,75,54,30.16,30.05,5,2,11,0.01
2013-8-15,72.0,56.4,48.0,57.0,40.4,-99.9,93,71,53,30.18,30.09,5,1,13,0.00
2013-8-16,75.0,64.1,57.0,58.0,51.5,-99.9,84,69,52,30.16,30.11,7,3,14,0.00
2013-8-17,80.0,68.2,58.0,63.0,58.3,53.0,87,72,50,30.20,30.14,7,3,14,0.00
2013-8-18,77.0,67.9,60.0,67.0,60.2,-99.9,92,79,64,30.19,30.11,5,2,9,0.00
2013-8-19,82.0,66.5,60.0,68.0,51.3,-99.9,95,77,46,30.16,30.09,2,0,7,0.00
2013-8-20,82.0,71.2,62.0,68.0,61.2,-99.9,94,75,50,30.20,30.11,5,1,11,0.00
2013-8-21,83.0,73.8,67.0,73.0,66.9,63.0,89,79,67,30.19,30.08,5,1,10,0.06
2013-8-22,84.0,73.3,66.0,72.0,67.4,64.0,93,82,63,30.14,30.04,6,2,13,0.02
2013-8-23,83.0,73.2,66.0,69.0,65.5,60.0,94,78,54,30.16,30.05,5,2,10,0.00
2013-8-24,82.0,71.8,61.0,68.0,60.6,55.0,82,69,48,30.28,30.16,4,2,10,0.00
2013-8-25,83.0,70.7,60.0,65.0,59.2,-99.9,92,71,44,30.35,30.24,4,1,8,0.00
2013-8-26,86.0,74.1,62.0,72.0,66.3,59.0,92,78,55,30.27,30.09,6,2,12,0.00
2013-8-27,86.0,74.0,67.0,75.0,69.1,65.0,94,85,68,30.09,30.01,4,1,9,0.00
2013-8-28,90.0,84.7,75.0,76.0,73.8,71.0,88,71,61,29.98,29.89,10,3,18,0.00
2013-8-29,82.0,72.9,67.0,71.0,68.1,65.0,94,86,66,30.07,29.98,5,1,8,0.00
2013-8-30,86.0,73.9,63.0,72.0,67.1,61.0,95,81,57,30.03,29.87,6,1,11,0.00
2013-8-31,85.0,75.3,69.0,75.0,69.9,66.0,91,84,72,29.89,29.80,8,2,14,0.10
2013-9-1,84.0,72.7,66.0,71.0,65.7,-99.9,92,81,63,29.85,29.78,6,2,12,0.10
2013-9-2,83.0,74.7,68.0,72.0,68.2,59.0,94,81,56,29.90,29.79,6,2,15,0.00
2013-9-3,74.0,64.1,56.0,59.0,55.8,53.0,92,76,57,30.07,29.90,6,2,12,0.00
2013-9-4,79.0,65.1,51.0,62.0,56.4,49.0,94,76,50,30.16,30.06,6,1,12,0.00
2013-9-5,83.0,67.9,56.0,64.0,58.4,48.0,94,74,49,30.21,30.13,5,2,12,0.00
2013-9-6,78.0,64.0,52.0,51.0,47.7,41.0,84,59,28,30.25,30.12,5,2,11,0.00
2013-9-7,83.0,68.1,53.0,66.0,57.9,48.0,88,71,55,30.12,29.97,6,2,11,0.00
2013-9-8,87.0,74.4,64.0,69.0,64.3,-99.9,94,74,50,30.02,29.96,6,2,12,0.00
2013-9-9,88.0,76.7,66.0,71.0,67.6,63.0,92,75,52,30.06,29.98,8,3,15,0.00
2013-9-10,91.0,80.9,74.0,76.0,71.7,68.0,88,75,57,30.15,30.04,7,3,14,0.00
2013-9-11,88.0,78.3,70.0,74.0,70.4,67.0,92,78,56,30.18,30.04,7,2,13,0.00
2013-9-12,78.0,72.3,64.0,70.0,67.8,61.0,94,86,69,30.04,29.85,7,2,14,0.42
2013-9-13,64.0,57.6,50.0,61.0,49.6,44.0,91,75,55,30.09,29.91,7,2,15,0.14
2013-9-14,70.0,54.7,43.0,47.0,43.9,41.0,92,70,38,30.18,30.09,6,2,13,0.01
2013-9-15,75.0,58.1,46.0,59.0,48.5,-99.9,92,75,51,30.15,30.03,8,2,14,0.00
2013-9-16,70.0,61.9,56.0,59.0,54.6,51.0,92,78,57,30.29,30.07,7,3,14,0.00
2013-9-17,74.0,60.9,50.0,55.0,51.0,47.0,90,72,43,30.33,30.18,5,3,12,0.00
2013-9-18,66.0,58.1,57.0,56.0,53.1,52.0,88,83,76,30.19,30.09,2,1,5,0.00
2013-9-19,79.0,68.8,64.0,69.0,64.6,62.0,94,87,66,30.10,29.99,6,2,12,0.20
2013-9-20,85.0,73.8,68.0,69.0,66.8,65.0,94,80,56,30.02,29.82,8,4,19,0.13
2013-9-21,72.0,64.3,53.0,67.0,58.2,49.0,94,82,49,29.87,29.70,5,1,12,0.62
2013-9-22,65.0,55.0,47.0,50.0,45.0,-99.9,92,73,50,30.02,29.87,7,2,13,0.09
2013-9-23,67.0,55.8,45.0,49.0,45.5,42.0,90,70,47,30.13,30.02,5,3,13,0.02
2013-9-24,74.0,56.9,44.0,56.0,47.4,41.0,90,72,49,30.10,29.94,4,2,10,0.01
2013-9-25,71.0,58.7,51.0,55.0,50.8,47.0,91,76,54,29.95,29.89,5,2,8,0.01
2013-9-26,79.0,61.2,46.0,60.0,50.8,44.0,94,72,41,30.08,29.93,4,1,10,0.01
2013-9-27,79.0,63.6,48.0,57.0,49.3,44.0,90,63,33,30.18,30.08,4,1,8,0.01
2013-9-28,78.0,65.4,50.0,58.0,51.9,46.0,91,65,39,30.20,30.08,4,1,11,0.01
2013-9-29,70.0,62.9,57.0,61.0,55.5,-99.9,91,79,67,30.08,30.01,6,2,14,0.01
2013-9-30,71.0,64.1,60.0,62.0,59.4,57.0,93,85,73,30.04,29.97,7,2,12,0.01
2013-10-1,65.0,62.4,60.0,60.0,59.1,57.0,91,89,84,30.06,30.01,0,0,0,0.01
2013-10-2,80.0,69.1,60.0,68.0,63.6,57.0,94,83,66,30.14,30.05,4,1,10,0.01
2013-10-3,77.0,70.2,67.0,70.0,66.5,65.0,94,88,70,30.11,30.03,7,1,13,0.03
2013-10-4,81.0,71.5,64.0,69.0,65.2,62.0,93,81,62,30.11,30.03,7,1,11,0.08
2013-10-5,79.0,70.8,66.0,69.0,66.4,63.0,93,86,72,30.08,29.97,6,2,12,0.30
2013-10-6,75.0,64.4,52.0,67.0,61.7,49.0,94,91,77,29.97,29.72,9,3,18,2.09
2013-10-7,59.0,51.6,45.0,52.0,45.3,42.0,93,80,58,30.16,29.81,9,4,18,0.55
2013-10-8,67.0,52.9,40.0,49.0,43.4,38.0,94,73,42,30.29,30.16,6,2,13,0.00
2013-10-9,71.0,57.4,47.0,51.0,45.5,42.0,86,67,38,30.26,30.17,5,2,12,0.00
2013-10-10,74.0,56.8,40.0,50.0,44.8,38.0,93,69,34,30.19,30.08,3,1,7,0.00
2013-10-11,78.0,60.5,46.0,52.0,48.2,43.0,91,68,35,30.12,30.03,3,1,9,0.00
2013-10-12,76.0,62.7,50.0,62.0,55.5,47.0,92,78,60,30.14,30.04,4,1,8,0.00
2013-10-13,73.0,60.5,52.0,62.0,53.1,-99.9,94,80,54,30.30,30.13,6,1,12,0.00
2013-10-14,72.0,56.9,45.0,54.0,47.1,41.0,89,72,41,30.33,30.19,8,2,14,0.00
2013-10-15,72.0,61.5,52.0,63.0,57.0,49.0,94,86,70,30.20,29.96,6,2,14,0.00
2013-10-16,66.0,62.3,49.0,62.0,57.7,45.0,93,85,69,29.96,29.89,8,3,12,0.09
2013-10-17,53.0,47.4,40.0,48.0,43.9,38.0,94,88,79,29.98,29.86,7,2,14,0.12
2013-10-18,63.0,51.7,43.0,49.0,44.0,41.0,92,77,49,30.05,29.95,8,3,18,0.01
2013-10-19,51.0,45.8,41.0,45.0,42.2,38.0,91,87,77,29.99,29.83,6,2,13,0.15
2013-10-20,60.0,46.8,39.0,44.0,36.4,-99.9,88,72,51,30.01,29.98,7,4,16,0.01
2013-10-21,64.0,53.8,44.0,48.0,41.0,37.0,84,63,43,30.02,29.90,10,4,19,0.01
2013-10-22,51.0,43.3,31.0,47.0,32.2,26.0,91,67,39,30.05,29.86,5,2,13,0.11
2013-10-23,44.0,39.7,36.0,38.0,34.7,31.0,92,82,70,30.02,29.75,7,3,15,0.33
2013-10-24,42.0,38.0,33.0,34.0,32.8,30.0,92,82,67,30.24,30.02,9,4,17,0.03
2013-10-25,47.0,40.1,29.0,34.0,29.5,27.0,92,68,47,30.41,30.24,8,3,16,0.07
2013-10-26,50.0,41.5,33.0,38.0,30.4,26.0,79,65,51,30.29,29.92,11,4,22,0.01
2013-10-27,56.0,42.3,31.0,39.0,32.7,-99.9,93,73,45,30.10,30.03,5,1,14,0.00
2013-10-28,63.0,45.2,30.0,40.0,32.2,-99.9,93,67,33,30.29,30.09,3,1,8,0.00
2013-10-29,58.0,48.6,38.0,45.0,40.2,33.0,89,73,59,30.36,30.22,4,2,8,0.00
2013-10-30,62.0,56.7,51.0,60.0,54.1,45.0,94,91,75,30.23,30.01,3,1,8,0.08
2013-10-31,66.0,63.0,60.0,62.0,58.0,55.0,93,84,74,30.01,29.38,15,7,31,0.75
2013-11-1,64.0,55.7,49.0,61.0,47.5,44.0,91,75,56,29.74,29.37,13,6,24,0.84
2013-11-2,53.0,49.0,44.0,44.0,40.1,36.0,85,72,56,30.06,29.73,9,4,19,0.00
2013-11-3,53.0,44.9,39.0,41.0,36.8,-99.9,88,76,56,30.37,30.07,4,1,9,0.00
2013-11-4,56.0,47.0,37.0,42.0,36.7,31.0,81,68,54,30.41,30.31,6,3,12,0.00
2013-11-5,61.0,54.0,50.0,43.0,40.8,38.0,72,62,49,30.42,30.24,5,1,11,0.00
2013-11-6,65.0,57.5,48.0,57.0,47.1,37.0,91,69,51,30.23,29.97,11,6,23,0.38
2013-11-7,47.0,42.5,36.0,43.0,33.2,27.0,91,71,49,30.23,30.01,8,3,16,0.08
2013-11-8,48.0,39.1,30.0,34.0,30.3,27.0,90,72,50,30.35,30.18,7,2,12,0.00
2013-11-9,59.0,48.3,39.0,38.0,30.2,-99.9,66,52,39,30.24,30.01,13,6,26,0.00
2013-11-10,50.0,42.9,30.0,40.0,31.6,26.0,86,65,50,30.33,30.07,10,4,25,0.00
2013-11-11,53.0,41.3,29.0,42.0,32.6,25.0,89,73,44,30.30,30.07,8,2,17,0.12
2013-11-12,34.0,28.2,23.0,31.0,22.3,19.0,91,79,60,30.58,30.23,7,3,16,0.07
2013-11-13,39.0,28.7,19.0,23.0,18.7,15.0,90,69,39,30.60,30.38,7,3,13,0.01
2013-11-14,53.0,41.0,31.0,24.0,20.8,17.0,66,47,25,30.38,30.15,10,6,19,0.00
2013-11-15,52.0,45.5,39.0,42.0,28.0,20.0,82,51,38,30.18,30.10,8,4,16,0.00
2013-11-16,60.0,51.8,47.0,54.0,46.1,-99.9,89,83,78,30.14,29.93,7,4,18,0.00
2013-11-17,64.0,59.7,52.0,60.0,54.5,40.0,92,84,59,29.94,29.53,14,8,32,1.22
2013-11-18,51.0,45.4,36.0,40.0,35.1,29.0,81,68,53,30.16,29.78,15,7,26,0.41
2013-11-19,39.0,34.1,29.0,29.0,27.6,26.0,90,77,64,30.34,30.16,6,2,11,0.00
2013-11-20,50.0,38.3,29.0,34.0,28.2,23.0,80,68,50,30.33,30.23,6,3,15,0.00
2013-11-21,54.0,49.0,43.0,47.0,38.1,29.0,88,66,55,30.33,30.20,7,2,12,0.04
2013-11-22,53.0,48.5,37.0,51.0,45.0,31.0,94,88,77,30.35,30.16,5,3,15,0.17
2013-11-23,37.0,29.9,21.0,31.0,21.1,-99.9,89,72,52,30.50,30.30,10,3,18,0.01
2013-11-24,26.0,20.2,13.0,13.0,10.9,8.0,84,68,52,30.64,30.49,5,1,10,0.00
2013-11-25,38.0,28.4,17.0,27.0,16.6,12.0,82,62,45,30.49,30.18,7,3,18,0.00
2013-11-26,34.0,32.2,30.0,31.0,29.6,27.0,92,89,78,30.19,29.89,5,1,9,0.02
2013-11-27,32.0,26.9,23.0,28.0,20.0,15.0,87,75,59,30.24,29.87,9,4,23,0.01
2013-11-28,32.0,24.5,18.0,20.0,16.4,13.0,81,71,59,30.42,30.24,7,2,16,0.00
2013-11-29,36.0,26.6,16.0,24.0,19.3,13.0,90,75,59,30.60,30.42,4,1,9,0.02
2013-11-30,48.0,35.9,25.0,31.0,24.3,-99.9,81,66,47,30.50,30.18,8,2,14,0.00
2013-12-1,49.0,42.7,37.0,37.0,32.4,27.0,79,67,59,30.18,29.95,7,2,14,0.00
2013-12-2,48.0,40.7,35.0,40.0,35.7,32.0,90,83,71,29.95,29.79,4,2,10,0.03
2013-12-3,52.0,43.3,34.0,46.0,39.8,32.0,94,88,76,29.88,29.79,4,2,8,0.03
2013-12-4,61.0,54.2,46.0,55.0,49.9,43.0,91,85,80,29.89,29.75,6,3,12,0.02
2013-12-5,63.0,49.8,32.0,59.0,45.5,29.0,93,85,78,30.12,29.78,7,4,16,0.37
2013-12-6,32.0,29.0,26.0,29.0,26.1,23.0,91,90,88,30.35,30.10,6,2,11,0.09
2013-12-7,26.0,22.2,16.0,23.0,16.4,-99.9,90,81,72,30.56,30.34,5,2,8,0.10
2013-12-8,32.0,24.3,16.0,30.0,20.7,12.0,93,86,77,30.50,29.99,8,4,16,0.01
2013-12-9,33.0,29.9,25.0,31.0,26.0,19.0,93,85,78,30.20,29.97,10,6,17,0.00
2013-12-10,28.0,22.6,18.0,19.0,16.0,11.0,89,76,62,30.30,30.11,10,5,20,0.00
2013-12-11,35.0,21.9,13.0,21.0,15.2,9.0,88,76,56,30.46,30.24,9,3,16,0.01
2013-12-12,23.0,16.0,4.0,12.0,5.5,1.0,86,65,39,30.50,30.30,7,3,14,0.01
2013-12-13,37.0,27.7,19.0,29.0,16.6,9.0,89,63,52,30.31,30.15,6,3,12,0.00
2013-12-14,38.0,34.1,32.0,36.0,30.8,-99.9,93,90,86,30.15,29.70,9,4,16,0.62
2013-12-15,32.0,27.5,26.0,30.0,22.9,18.0,92,82,72,30.09,29.82,13,8,24,0.04
2013-12-16,33.0,27.2,25.0,30.0,24.0,21.0,91,88,78,30.11,29.97,7,3,13,0.01
2013-12-17,34.0,29.9,27.0,31.0,26.1,23.0,91,86,81,30.13,29.96,11,5,22,0.03
2013-12-18,37.0,28.6,20.0,23.0,19.7,16.0,89,71,50,30.22,30.03,8,5,15,0.01
2013-12-19,53.0,44.6,36.0,40.0,30.4,20.0,66,57,51,30.08,29.96,8,6,18,0.02
2013-12-20,59.0,53.2,49.0,55.0,44.9,34.0,90,75,54,29.96,29.83,9,6,21,0.02
2013-12-21,67.0,59.6,56.0,62.0,55.5,-99.9,93,88,82,29.83,29.48,14,6,29,1.26
2013-12-22,62.0,53.6,40.0,59.0,48.7,36.0,91,84,73,30.01,29.54,13,8,28,0.91
2013-12-23,39.0,31.9,26.0,36.0,25.5,19.0,88,77,70,30.34,30.01,8,6,17,0.03
2013-12-24,26.0,18.7,13.0,20.0,12.3,7.0,85,76,65,30.51,30.32,8,4,15,0.00
2013-12-25,33.0,24.5,15.0,24.0,15.5,11.0,83,70,50,30.47,30.16,7,4,15,0.00
2013-12-26,38.0,33.0,29.0,26.0,22.4,18.0,79,65,48,30.32,30.14,11,6,20,0.00
2013-12-27,47.0,37.7,31.0,31.0,26.8,23.0,74,65,53,30.39,30.27,7,4,13,0.00
2013-12-28,51.0,41.6,35.0,34.0,28.6,-99.9,73,62,49,30.27,30.01,7,4,15,0.00
2013-12-29,43.0,39.0,33.0,39.0,34.3,27.0,93,84,55,30.01,29.77,8,4,16,0.39
2013-12-30,33.0,27.5,23.0,29.0,20.7,16.0,85,75,66,30.21,29.98,8,4,15,0.01
2013-12-31,31.0,26.6,23.0,22.0,17.1,13.0,76,67,58,30.33,30.12,12,6,20,0.00
2014-1-1,43.0,33.7,25.0,29.0,24.9,19.0,81,71,57,30.27,30.00,6,2,10,0.00
2014-1-2,33.0,24.0,13.0,29.0,20.6,9.0,92,86,80,30.11,29.78,7,3,17,0.00